Time;durP1;ratioP1;P1;durP2;ratioP2;P2;SDS_P1;SDS_P2;PMS_P1;PMS_P2;Temp;Humidity;BMP_temperature;BMP_pressure;BME280_temperature;BME280_humidity;BME280_pressure;Samples;Min_cycle;Max_cycle;Signal;HPM_P1;HPM_P2
2022/11/16 00:01:42;;;;;;;16.27;8.70;;;;;;;;;;5041295;28;87094;-59
2022/11/16 00:04:11;;;;;;;17.47;8.83;;;;;;;;;;5041249;27;89106;-60
2022/11/16 00:06:40;;;;;;;15.77;8.83;;;;;;;;;;5041656;27;87772;-59
2022/11/16 00:09:25;;;;;;;12.93;7.57;;;;;;;;;;5040668;28;87189;-60
2022/11/16 00:11:54;;;;;;;13.60;7.33;;;;;;;;;;5049688;27;87070;-59
2022/11/16 00:14:23;;;;;;;17.50;8.77;;;;;;;;;;5040956;28;89181;-59
2022/11/16 00:16:51;;;;;;;18.60;8.40;;;;;;;;;;5055792;27;89847;-59
2022/11/16 00:19:19;;;;;;;12.63;8.23;;;;;;;;;;5081929;27;87888;-59
2022/11/16 00:21:48;;;;;;;16.37;7.80;;;;;;;;;;5082255;27;86852;-59
2022/11/16 00:24:18;;;;;;;15.03;8.70;;;;;;;;;;5081738;27;89258;-59
2022/11/16 00:26:47;;;;;;;18.03;8.47;;;;;;;;;;5073346;27;88655;-58
2022/11/16 00:29:15;;;;;;;12.57;7.43;;;;;;;;;;5055379;27;87082;-60
2022/11/16 00:31:45;;;;;;;16.30;8.63;;;;;;;;;;5061136;27;86272;-59
2022/11/16 00:34:13;;;;;;;13.87;7.30;;;;;;;;;;5060133;27;89266;-59
2022/11/16 00:36:41;;;;;;;14.23;7.67;;;;;;;;;;5070292;27;89040;-59
2022/11/16 00:39:11;;;;;;;14.87;6.37;;;;;;;;;;5073756;27;88045;-59
2022/11/16 00:41:40;;;;;;;17.73;7.37;;;;;;;;;;5058615;27;87088;-59
2022/11/16 00:44:09;;;;;;;12.33;7.07;;;;;;;;;;5082950;27;89125;-59
2022/11/16 00:46:37;;;;;;;12.00;6.90;;;;;;;;;;5075087;27;87035;-59
2022/11/16 00:49:06;;;;;;;12.80;6.57;;;;;;;;;;5063468;27;87078;-59
2022/11/16 00:51:34;;;;;;;11.93;6.20;;;;;;;;;;5063370;27;87529;-58
2022/11/16 00:54:02;;;;;;;12.73;5.53;;;;;;;;;;5060980;27;88983;-59
2022/11/16 00:56:31;;;;;;;10.07;5.47;;;;;;;;;;5060271;27;90749;-59
2022/11/16 00:59:00;;;;;;;12.40;6.80;;;;;;;;;;5055808;27;86911;-58
2022/11/16 01:01:29;;;;;;;11.17;5.37;;;;;;;;;;5063522;27;87072;-59
2022/11/16 01:03:57;;;;;;;10.93;5.37;;;;;;;;;;5061822;27;88965;-59
2022/11/16 01:06:26;;;;;;;8.30;4.50;;;;;;;;;;5059311;27;89626;-59
2022/11/16 01:08:54;;;;;;;11.00;5.90;;;;;;;;;;5069142;27;87146;-59
2022/11/16 01:14:09;;;;;;;10.67;5.83;;;;;;;;;;5054893;27;89224;-59
2022/11/16 01:16:38;;;;;;;10.83;5.60;;;;;;;;;;5062969;27;87677;-59
2022/11/16 01:19:06;;;;;;;6.77;4.60;;;;;;;;;;5063576;27;87209;-59
2022/11/16 01:21:34;;;;;;;9.83;5.40;;;;;;;;;;5061989;27;86325;-58
2022/11/16 01:24:03;;;;;;;8.07;4.13;;;;;;;;;;5061575;27;89439;-59
2022/11/16 01:26:31;;;;;;;8.03;5.10;;;;;;;;;;5059231;27;87932;-59
2022/11/16 01:28:59;;;;;;;9.30;4.07;;;;;;;;;;5052374;27;88107;-59
2022/11/16 01:31:29;;;;;;;11.33;5.57;;;;;;;;;;5062602;27;87023;-59
2022/11/16 01:33:57;;;;;;;9.70;5.13;;;;;;;;;;5062473;27;88133;-59
2022/11/16 01:36:26;;;;;;;9.60;5.27;;;;;;;;;;5063276;27;89127;-59
2022/11/16 01:38:54;;;;;;;8.07;4.63;;;;;;;;;;5063076;27;87001;-58
2022/11/16 01:41:24;;;;;;;7.10;3.93;;;;;;;;;;5061351;27;87066;-59
2022/11/16 01:43:53;;;;;;;10.60;4.67;;;;;;;;;;5061393;27;87709;-59
2022/11/16 01:46:21;;;;;;;5.83;4.30;;;;;;;;;;5055255;27;87658;-58
2022/11/16 01:48:52;;;;;;;9.03;4.90;;;;;;;;;;5061812;27;87110;-59
2022/11/16 01:51:20;;;;;;;9.50;4.53;;;;;;;;;;5063086;27;86984;-59
2022/11/16 01:53:49;;;;;;;6.30;3.90;;;;;;;;;;5060104;27;89078;-59
2022/11/16 01:56:17;;;;;;;6.00;3.73;;;;;;;;;;5062040;27;88705;-59
2022/11/16 01:58:45;;;;;;;10.53;4.20;;;;;;;;;;5053882;27;87168;-59
2022/11/16 02:01:14;;;;;;;7.50;3.97;;;;;;;;;;5062487;27;86991;-58
2022/11/16 02:03:42;;;;;;;7.43;3.77;;;;;;;;;;5061868;27;89154;-59
2022/11/16 02:06:29;;;;;;;7.23;4.20;;;;;;;;;;5059066;27;89182;-59
2022/11/16 02:11:56;;;;;;;4.83;3.47;;;;;;;;;;5062741;27;86367;-59
2022/11/16 02:14:27;;;;;;;6.70;3.40;;;;;;;;;;5061611;27;88223;-58
2022/11/16 02:16:58;;;;;;;6.67;4.03;;;;;;;;;;5061013;27;87932;-59
2022/11/16 02:19:37;;;;;;;6.63;3.00;;;;;;;;;;5056253;27;87913;-59
2022/11/16 02:22:07;;;;;;;6.13;3.00;;;;;;;;;;5057138;27;87028;-59
2022/11/16 02:24:46;;;;;;;6.53;3.60;;;;;;;;;;5062073;27;88091;-59
2022/11/16 02:27:31;;;;;;;4.77;3.17;;;;;;;;;;5061725;27;88772;-59
2022/11/16 02:30:01;;;;;;;6.63;3.00;;;;;;;;;;5053029;27;87009;-59
2022/11/16 02:32:30;;;;;;;5.47;2.43;;;;;;;;;;5056532;27;89135;-59
2022/11/16 02:35:01;;;;;;;5.33;2.97;;;;;;;;;;5059570;27;87805;-59
2022/11/16 02:37:30;;;;;;;5.53;2.77;;;;;;;;;;5059776;27;87581;-59
2022/11/16 02:39:59;;;;;;;4.00;2.57;;;;;;;;;;5060111;27;87095;-59
2022/11/16 02:42:29;;;;;;;5.17;2.73;;;;;;;;;;5053121;27;87088;-59
2022/11/16 02:44:58;;;;;;;6.40;3.80;;;;;;;;;;5061474;27;90841;-59
2022/11/16 02:47:28;;;;;;;7.40;3.20;;;;;;;;;;5061458;27;88404;-59
2022/11/16 02:49:57;;;;;;;3.83;2.50;;;;;;;;;;5061363;27;87077;-59
2022/11/16 02:52:25;;;;;;;5.50;2.63;;;;;;;;;;5062188;27;87152;-59
2022/11/16 02:54:53;;;;;;;2.47;2.10;;;;;;;;;;5061740;27;87993;-59
2022/11/16 02:57:35;;;;;;;4.43;2.73;;;;;;;;;;5057032;27;88340;-59
2022/11/16 03:00:05;;;;;;;2.93;2.37;;;;;;;;;;5058959;27;87131;-59
2022/11/16 03:02:35;;;;;;;4.70;2.93;;;;;;;;;;5061778;27;86300;-59
2022/11/16 03:05:05;;;;;;;5.43;2.23;;;;;;;;;;5060224;27;88929;-59
2022/11/16 03:07:34;;;;;;;4.87;2.93;;;;;;;;;;5054493;27;87103;-59
2022/11/16 03:10:02;;;;;;;5.23;3.10;;;;;;;;;;5061362;27;88261;-59
2022/11/16 03:12:30;;;;;;;3.80;2.00;;;;;;;;;;5053750;27;87080;-59
2022/11/16 03:14:59;;;;;;;3.70;2.00;;;;;;;;;;5060713;27;88740;-59
2022/11/16 03:17:28;;;;;;;4.70;2.30;;;;;;;;;;5060722;27;88742;-59
2022/11/16 03:19:59;;;;;;;3.73;2.40;;;;;;;;;;5060077;27;87127;-59
2022/11/16 03:22:29;;;;;;;5.07;2.50;;;;;;;;;;5061385;27;87002;-59
2022/11/16 03:24:57;;;;;;;5.47;2.37;;;;;;;;;;5058069;27;89175;-59
2022/11/16 03:27:27;;;;;;;3.60;1.93;;;;;;;;;;5061223;27;87816;-59
2022/11/16 03:29:56;;;;;;;4.33;1.97;;;;;;;;;;5052890;27;87169;-59
2022/11/16 03:32:26;;;;;;;2.60;1.77;;;;;;;;;;5061155;27;87062;-59
2022/11/16 03:34:55;;;;;;;3.47;1.90;;;;;;;;;;5056116;27;90021;-59
2022/11/16 03:37:25;;;;;;;4.33;2.43;;;;;;;;;;5060962;27;91402;-59
2022/11/16 03:39:53;;;;;;;2.47;1.60;;;;;;;;;;5061543;27;87242;-59
2022/11/16 03:42:21;;;;;;;2.60;2.07;;;;;;;;;;5061025;27;87071;-59
2022/11/16 03:44:50;;;;;;;3.77;2.10;;;;;;;;;;5059496;27;88780;-59
2022/11/16 03:47:18;;;;;;;2.43;1.63;;;;;;;;;;5053636;27;88825;-59
2022/11/16 03:49:46;;;;;;;3.10;2.03;;;;;;;;;;5058040;27;87081;-59
2022/11/16 03:52:15;;;;;;;3.00;1.77;;;;;;;;;;5060773;27;86322;-58
2022/11/16 03:54:45;;;;;;;2.90;1.60;;;;;;;;;;5059855;27;87917;-58
2022/11/16 03:57:16;;;;;;;2.67;2.00;;;;;;;;;;5052567;27;89637;-58
2022/11/16 03:59:45;;;;;;;2.80;1.63;;;;;;;;;;5059889;27;88057;-59
2022/11/16 04:02:13;;;;;;;3.07;1.80;;;;;;;;;;5055444;27;87097;-59
2022/11/16 04:29:39;;;;;;;2.10;1.27;;;;;;;;;;5062910;27;89787;-59
2022/11/16 04:37:52;;;;;;;4.17;1.60;;;;;;;;;;4984707;28;89032;-59
2022/11/16 04:40:21;;;;;;;3.13;1.60;;;;;;;;;;5055241;27;88660;-58
2022/11/16 04:42:53;;;;;;;2.73;1.37;;;;;;;;;;5061708;27;87095;-59
2022/11/16 04:48:08;;;;;;;2.93;1.40;;;;;;;;;;5058560;27;89238;-59
2022/11/16 04:50:36;;;;;;;1.53;1.30;;;;;;;;;;5062587;27;87146;-58
2022/11/16 04:53:04;;;;;;;2.10;1.40;;;;;;;;;;5054496;27;88007;-58
2022/11/16 04:55:33;;;;;;;1.80;1.50;;;;;;;;;;5063087;27;87113;-59
2022/11/16 04:58:03;;;;;;;2.33;1.43;;;;;;;;;;5060228;27;89189;-59
2022/11/16 05:00:31;;;;;;;2.20;1.43;;;;;;;;;;5056730;27;87540;-59
2022/11/16 05:03:00;;;;;;;3.53;1.40;;;;;;;;;;5062303;27;87127;-59
2022/11/16 05:05:29;;;;;;;3.53;1.17;;;;;;;;;;5060259;27;87469;-58
2022/11/16 05:07:57;;;;;;;1.53;1.23;;;;;;;;;;5060459;27;87779;-59
2022/11/16 05:10:25;;;;;;;1.53;1.20;;;;;;;;;;5062131;27;87742;-58
2022/11/16 05:12:54;;;;;;;1.00;0.90;;;;;;;;;;5061539;27;87425;-59
2022/11/16 05:15:23;;;;;;;2.30;1.20;;;;;;;;;;5062610;27;87077;-59
2022/11/16 05:17:53;;;;;;;1.80;1.50;;;;;;;;;;5061495;27;90108;-58
2022/11/16 05:24:32;;;;;;;1.00;0.97;;;;;;;;;;5054798;27;87165;-58
2022/11/16 05:25:56;;;;;;;1.03;0.67;;;;;;;;;;5048060;27;86966;-58
2022/11/16 05:28:25;;;;;;;1.97;0.83;;;;;;;;;;5062571;27;89103;-59
2022/11/16 05:30:54;;;;;;;2.63;1.30;;;;;;;;;;5062302;27;89135;-58
2022/11/16 05:33:23;;;;;;;3.53;1.60;;;;;;;;;;5063176;27;87100;-58
2022/11/16 05:35:51;;;;;;;1.57;1.00;;;;;;;;;;5063420;27;86230;-59
2022/11/16 05:38:19;;;;;;;1.67;1.20;;;;;;;;;;5063165;27;87275;-59
2022/11/16 05:40:48;;;;;;;1.43;1.30;;;;;;;;;;5062669;27;87067;-59
2022/11/16 05:43:16;;;;;;;1.53;1.17;;;;;;;;;;5062826;27;88092;-58
2022/11/16 05:45:44;;;;;;;1.83;0.90;;;;;;;;;;5061637;27;87135;-59
2022/11/16 05:48:14;;;;;;;1.13;0.77;;;;;;;;;;5061850;27;88373;-59
2022/11/16 05:50:42;;;;;;;1.10;0.90;;;;;;;;;;5062279;27;88252;-59
2022/11/16 05:53:10;;;;;;;1.23;1.13;;;;;;;;;;5060259;27;86945;-59
2022/11/16 05:55:39;;;;;;;2.00;0.77;;;;;;;;;;5057629;27;87071;-58
2022/11/16 05:58:07;;;;;;;0.73;0.53;;;;;;;;;;5058449;27;87958;-58
2022/11/16 06:00:35;;;;;;;1.67;1.13;;;;;;;;;;5059508;27;87598;-58
2022/11/16 06:03:04;;;;;;;1.83;1.10;;;;;;;;;;5062137;27;87585;-59
2022/11/16 06:05:36;;;;;;;2.80;0.83;;;;;;;;;;5062038;27;87243;-59
2022/11/16 06:08:08;;;;;;;1.87;0.90;;;;;;;;;;5061875;27;88970;-58
2022/11/16 06:10:36;;;;;;;0.73;0.73;;;;;;;;;;5062661;27;89722;-59
2022/11/16 06:13:05;;;;;;;2.47;1.03;;;;;;;;;;5062530;27;87168;-59
2022/11/16 06:15:33;;;;;;;0.83;0.77;;;;;;;;;;5061769;27;87263;-59
2022/11/16 06:18:01;;;;;;;2.23;1.33;;;;;;;;;;5061856;27;89214;-58
2022/11/16 06:20:30;;;;;;;1.27;0.93;;;;;;;;;;5060470;27;90829;-58
2022/11/16 06:22:59;;;;;;;0.80;0.80;;;;;;;;;;5061172;27;87053;-59
2022/11/16 06:25:29;;;;;;;1.30;0.80;;;;;;;;;;5062394;27;86421;-59
2022/11/16 06:27:58;;;;;;;0.83;0.83;;;;;;;;;;5062060;27;87249;-59
2022/11/16 06:30:31;;;;;;;1.93;1.30;;;;;;;;;;5061779;27;88869;-59
2022/11/16 06:32:59;;;;;;;1.17;1.07;;;;;;;;;;5060902;27;88022;-58
2022/11/16 06:35:27;;;;;;;0.83;0.60;;;;;;;;;;5062111;27;87199;-59
2022/11/16 06:37:58;;;;;;;0.60;0.60;;;;;;;;;;5061509;27;88897;-59
2022/11/16 06:40:27;;;;;;;0.80;0.70;;;;;;;;;;5061563;27;88320;-59
2022/11/16 06:42:57;;;;;;;1.97;0.97;;;;;;;;;;5061307;27;87036;-58
2022/11/16 06:45:25;;;;;;;0.60;0.60;;;;;;;;;;5061950;27;87082;-59
2022/11/16 06:47:54;;;;;;;1.33;1.10;;;;;;;;;;5060986;27;89040;-58
2022/11/16 06:50:22;;;;;;;0.83;0.50;;;;;;;;;;5053940;27;87812;-58
2022/11/16 06:52:51;;;;;;;1.93;1.00;;;;;;;;;;5061876;27;87038;-58
2022/11/16 06:55:19;;;;;;;1.00;0.80;;;;;;;;;;5061541;27;87103;-58
2022/11/16 06:57:49;;;;;;;1.00;0.90;;;;;;;;;;5057660;27;88928;-58
2022/11/16 07:00:18;;;;;;;0.67;0.67;;;;;;;;;;5053012;27;88636;-58
2022/11/16 07:02:46;;;;;;;1.83;0.80;;;;;;;;;;5061096;27;87053;-58
2022/11/16 07:05:15;;;;;;;0.53;0.53;;;;;;;;;;5061804;27;87018;-58
2022/11/16 07:07:43;;;;;;;0.80;0.80;;;;;;;;;;5059349;27;88138;-57
2022/11/16 07:10:11;;;;;;;0.80;0.77;;;;;;;;;;5061598;27;87624;-58
2022/11/16 07:12:40;;;;;;;0.77;0.77;;;;;;;;;;5054144;27;87084;-58
2022/11/16 07:15:10;;;;;;;0.57;0.57;;;;;;;;;;5060972;27;87018;-58
2022/11/16 07:17:39;;;;;;;1.50;0.83;;;;;;;;;;5061153;27;89061;-58
2022/11/16 07:20:07;;;;;;;0.50;0.50;;;;;;;;;;5060584;27;88919;-58
2022/11/16 07:22:36;;;;;;;1.90;0.80;;;;;;;;;;5060853;27;87952;-58
2022/11/16 07:25:04;;;;;;;0.60;0.60;;;;;;;;;;5060692;27;87069;-58
2022/11/16 07:27:33;;;;;;;0.57;0.57;;;;;;;;;;5060650;27;87804;-58
2022/11/16 07:30:01;;;;;;;1.37;0.63;;;;;;;;;;5060863;27;88895;-58
2022/11/16 07:32:31;;;;;;;1.13;0.70;;;;;;;;;;5055961;27;87093;-58
2022/11/16 07:34:59;;;;;;;0.77;0.67;;;;;;;;;;5061164;27;86958;-58
2022/11/16 07:37:27;;;;;;;0.50;0.50;;;;;;;;;;5060028;27;88156;-58
2022/11/16 07:39:56;;;;;;;0.80;0.53;;;;;;;;;;5061730;27;87398;-58
2022/11/16 07:42:24;;;;;;;1.90;1.00;;;;;;;;;;5053019;27;87051;-58
2022/11/16 07:44:52;;;;;;;0.70;0.70;;;;;;;;;;5060296;27;87131;-58
2022/11/16 07:47:21;;;;;;;0.63;0.50;;;;;;;;;;5060658;27;92188;-58
2022/11/16 07:49:50;;;;;;;0.60;0.60;;;;;;;;;;5060670;27;89521;-58
2022/11/16 07:52:19;;;;;;;0.53;0.50;;;;;;;;;;5060381;27;87076;-58
2022/11/16 07:54:47;;;;;;;1.07;0.80;;;;;;;;;;5058895;27;86969;-58
2022/11/16 07:57:15;;;;;;;1.30;0.87;;;;;;;;;;5060727;27;89139;-58
2022/11/16 07:59:44;;;;;;;0.83;0.60;;;;;;;;;;5058162;27;89350;-58
2022/11/16 08:02:12;;;;;;;0.57;0.57;;;;;;;;;;5072003;27;87016;-58
2022/11/16 08:04:41;;;;;;;0.40;0.40;;;;;;;;;;5061360;27;86457;-58
2022/11/16 08:07:11;;;;;;;0.43;0.43;;;;;;;;;;5047816;27;88943;-59
2022/11/16 08:09:39;;;;;;;1.90;0.60;;;;;;;;;;5076070;27;88924;-58
2022/11/16 08:12:08;;;;;;;2.00;0.53;;;;;;;;;;5066187;27;88014;-58
2022/11/16 08:14:36;;;;;;;0.50;0.50;;;;;;;;;;5059814;27;87347;-58
2022/11/16 08:17:06;;;;;;;0.70;0.70;;;;;;;;;;5059525;27;91010;-58
2022/11/16 08:19:35;;;;;;;1.07;0.63;;;;;;;;;;5059052;27;89006;-58
2022/11/16 08:22:03;;;;;;;0.57;0.57;;;;;;;;;;5059803;27;87081;-58
2022/11/16 08:24:33;;;;;;;0.97;0.70;;;;;;;;;;5060820;27;87031;-58
2022/11/16 08:27:01;;;;;;;1.03;0.50;;;;;;;;;;5060612;27;87949;-58
2022/11/16 08:29:30;;;;;;;0.80;0.77;;;;;;;;;;5060361;27;87671;-58
2022/11/16 08:31:58;;;;;;;1.13;0.80;;;;;;;;;;5059386;27;87105;-58
2022/11/16 08:34:26;;;;;;;1.60;0.70;;;;;;;;;;5060895;27;87179;-58
2022/11/16 08:36:55;;;;;;;3.03;0.57;;;;;;;;;;5060254;27;89893;-58
2022/11/16 08:39:23;;;;;;;4.33;0.90;;;;;;;;;;5060693;27;89378;-58
2022/11/16 08:41:53;;;;;;;2.60;0.47;;;;;;;;;;5061047;27;87666;-58
2022/11/16 08:44:21;;;;;;;1.63;0.60;;;;;;;;;;5060303;27;87081;-58
2022/11/16 08:46:50;;;;;;;0.67;0.43;;;;;;;;;;5060094;27;88217;-58
2022/11/16 08:49:18;;;;;;;0.63;0.57;;;;;;;;;;5059692;27;87671;-58
2022/11/16 08:51:46;;;;;;;0.50;0.50;;;;;;;;;;5060079;27;87076;-58
2022/11/16 08:54:15;;;;;;;1.70;0.53;;;;;;;;;;5060828;27;86365;-58
2022/11/16 08:56:43;;;;;;;0.73;0.40;;;;;;;;;;5061723;27;89526;-58
2022/11/16 08:59:13;;;;;;;0.40;0.40;;;;;;;;;;5064154;27;91535;-58
2022/11/16 09:01:41;;;;;;;0.40;0.40;;;;;;;;;;5063380;27;88051;-59
2022/11/16 09:04:10;;;;;;;3.50;0.40;;;;;;;;;;5063776;27;87055;-58
2022/11/16 09:06:38;;;;;;;0.93;0.50;;;;;;;;;;5063600;27;87935;-58
2022/11/16 09:09:07;;;;;;;0.83;0.77;;;;;;;;;;5063224;27;88963;-58
2022/11/16 09:11:35;;;;;;;0.30;0.30;;;;;;;;;;5063587;27;87661;-58
2022/11/16 09:14:04;;;;;;;0.63;0.37;;;;;;;;;;5063263;27;87055;-58
2022/11/16 09:16:33;;;;;;;0.50;0.40;;;;;;;;;;5063619;27;89076;-59
2022/11/16 09:19:02;;;;;;;0.53;0.37;;;;;;;;;;5063312;27;87597;-58
2022/11/16 09:21:30;;;;;;;0.30;0.30;;;;;;;;;;5062571;27;86984;-58
2022/11/16 09:23:58;;;;;;;0.70;0.70;;;;;;;;;;5063410;27;86924;-59
2022/11/16 09:26:27;;;;;;;0.40;0.40;;;;;;;;;;5062420;27;90362;-58
2022/11/16 09:28:56;;;;;;;2.93;0.63;;;;;;;;;;5063761;27;88503;-58
2022/11/16 09:31:26;;;;;;;0.40;0.40;;;;;;;;;;5063110;27;87105;-58
2022/11/16 09:33:57;;;;;;;0.40;0.40;;;;;;;;;;5062893;27;87076;-58
2022/11/16 09:36:25;;;;;;;0.57;0.40;;;;;;;;;;5062833;27;89147;-58
2022/11/16 09:38:54;;;;;;;2.20;0.50;;;;;;;;;;5062824;27;89006;-58
2022/11/16 09:41:48;;;;;;;0.50;0.30;;;;;;;;;;5063124;27;86984;-58
2022/11/16 09:44:20;;;;;;;0.50;0.37;;;;;;;;;;5063537;27;86342;-58
2022/11/16 09:46:49;;;;;;;0.40;0.40;;;;;;;;;;5062641;27;89134;-59
2022/11/16 09:49:19;;;;;;;0.30;0.30;;;;;;;;;;5062615;27;88886;-58
2022/11/16 09:51:48;;;;;;;1.33;0.50;;;;;;;;;;5062690;27;88030;-58
2022/11/16 09:54:17;;;;;;;0.47;0.47;;;;;;;;;;5062647;27;87679;-58
2022/11/16 09:56:45;;;;;;;3.43;0.43;;;;;;;;;;5062374;27;88955;-58
2022/11/16 09:59:15;;;;;;;0.93;0.57;;;;;;;;;;5062495;27;88564;-58
2022/11/16 10:01:47;;;;;;;2.97;0.47;;;;;;;;;;5062635;27;87032;-58
2022/11/16 10:04:16;;;;;;;2.90;0.50;;;;;;;;;;5062242;27;87116;-59
2022/11/16 10:06:47;;;;;;;3.50;0.73;;;;;;;;;;5062511;27;87727;-58
2022/11/16 10:09:15;;;;;;;0.57;0.53;;;;;;;;;;5063042;27;88119;-58
2022/11/16 10:11:52;;;;;;;0.30;0.30;;;;;;;;;;5063185;27;87075;-59
2022/11/16 10:14:24;;;;;;;0.63;0.40;;;;;;;;;;5062813;27;87062;-58
2022/11/16 10:16:54;;;;;;;0.50;0.50;;;;;;;;;;5062347;27;90130;-59
2022/11/16 10:19:23;;;;;;;0.30;0.30;;;;;;;;;;5062453;27;87246;-58
2022/11/16 10:21:55;;;;;;;0.77;0.37;;;;;;;;;;5065290;27;87062;-58
2022/11/16 10:24:32;;;;;;;3.03;0.53;;;;;;;;;;5063842;27;87055;-58
2022/11/16 10:27:04;;;;;;;1.57;0.50;;;;;;;;;;5063734;27;87139;-58
2022/11/16 10:29:36;;;;;;;0.60;0.60;;;;;;;;;;5063796;27;89296;-58
2022/11/16 10:32:08;;;;;;;0.90;0.60;;;;;;;;;;5064195;27;87651;-59
2022/11/16 10:34:40;;;;;;;0.23;0.23;;;;;;;;;;5063147;27;86256;-58
2022/11/16 10:37:11;;;;;;;0.57;0.57;;;;;;;;;;5062994;27;89065;-58
2022/11/16 10:39:39;;;;;;;0.47;0.47;;;;;;;;;;5063943;27;88478;-59
2022/11/16 10:42:11;;;;;;;0.50;0.40;;;;;;;;;;5063629;27;88108;-58
2022/11/16 10:44:40;;;;;;;4.77;0.90;;;;;;;;;;5063207;27;86919;-58
2022/11/16 10:47:12;;;;;;;0.43;0.40;;;;;;;;;;5063083;27;89163;-58
2022/11/16 10:49:43;;;;;;;0.70;0.50;;;;;;;;;;5062644;27;87921;-58
2022/11/16 10:52:13;;;;;;;0.33;0.33;;;;;;;;;;5063792;27;87045;-58
2022/11/16 10:54:42;;;;;;;0.43;0.43;;;;;;;;;;5062860;27;87367;-58
2022/11/16 10:57:13;;;;;;;0.73;0.50;;;;;;;;;;5063402;27;88084;-58
2022/11/16 10:59:42;;;;;;;0.80;0.43;;;;;;;;;;5063709;27;88661;-58
2022/11/16 11:02:25;;;;;;;0.30;0.30;;;;;;;;;;5066701;27;87001;-58
2022/11/16 11:05:01;;;;;;;1.03;0.80;;;;;;;;;;5082446;27;87055;-58
2022/11/16 11:07:31;;;;;;;0.30;0.30;;;;;;;;;;5082550;27;88566;-58
2022/11/16 11:10:00;;;;;;;1.03;0.40;;;;;;;;;;5081378;27;89869;-58
2022/11/16 11:12:40;;;;;;;0.30;0.30;;;;;;;;;;5082601;27;87095;-58
2022/11/16 11:15:21;;;;;;;2.20;0.97;;;;;;;;;;5082039;27;87070;-58
2022/11/16 11:18:08;;;;;;;3.80;0.80;;;;;;;;;;5081477;27;88266;-58
2022/11/16 11:20:37;;;;;;;0.67;0.50;;;;;;;;;;5080024;27;88858;-58
2022/11/16 11:23:14;;;;;;;0.53;0.53;;;;;;;;;;5082733;27;87079;-58
2022/11/16 11:25:48;;;;;;;0.40;0.40;;;;;;;;;;5082898;27;86364;-59
2022/11/16 11:28:18;;;;;;;0.40;0.30;;;;;;;;;;5083790;27;87561;-58
2022/11/16 11:30:52;;;;;;;1.17;0.43;;;;;;;;;;5082949;27;88582;-58
2022/11/16 11:33:22;;;;;;;0.43;0.37;;;;;;;;;;5082617;27;87929;-57
2022/11/16 11:35:56;;;;;;;0.40;0.40;;;;;;;;;;5086285;27;87030;-58
2022/11/16 11:38:26;;;;;;;0.20;0.20;;;;;;;;;;5088413;27;87994;-58
2022/11/16 11:40:58;;;;;;;0.20;0.20;;;;;;;;;;5087023;27;88652;-58
2022/11/16 11:43:27;;;;;;;0.50;0.50;;;;;;;;;;5085595;27;86884;-58
2022/11/16 11:45:57;;;;;;;0.33;0.33;;;;;;;;;;5084927;27;87042;-58
2022/11/16 11:48:28;;;;;;;1.90;0.60;;;;;;;;;;5085082;27;90084;-58
2022/11/16 11:50:58;;;;;;;0.33;0.33;;;;;;;;;;5085736;27;87728;-58
2022/11/16 11:53:34;;;;;;;2.07;1.00;;;;;;;;;;5085319;27;87060;-58
2022/11/16 11:56:03;;;;;;;1.40;0.40;;;;;;;;;;5085059;27;86905;-58
2022/11/16 11:58:32;;;;;;;2.13;0.57;;;;;;;;;;5084067;27;90059;-58
2022/11/16 12:01:09;;;;;;;0.63;0.40;;;;;;;;;;5083334;27;89048;-58
2022/11/16 12:03:51;;;;;;;1.00;0.47;;;;;;;;;;5083044;27;88029;-58
2022/11/16 12:06:20;;;;;;;0.37;0.37;;;;;;;;;;5083013;27;87045;-58
2022/11/16 12:08:57;;;;;;;0.67;0.40;;;;;;;;;;5082252;27;90923;-58
2022/11/16 12:11:27;;;;;;;1.30;0.43;;;;;;;;;;5081979;27;88814;-60
2022/11/16 12:14:00;;;;;;;0.20;0.20;;;;;;;;;;5081657;27;87033;-58
2022/11/16 12:16:29;;;;;;;0.40;0.40;;;;;;;;;;5081904;27;86404;-58
2022/11/16 12:19:00;;;;;;;1.57;0.43;;;;;;;;;;5080912;27;89244;-57
2022/11/16 12:21:32;;;;;;;0.97;0.50;;;;;;;;;;5080577;27;88130;-58
2022/11/16 12:24:05;;;;;;;1.10;0.40;;;;;;;;;;5080830;27;87987;-58
2022/11/16 12:26:37;;;;;;;0.33;0.33;;;;;;;;;;5080262;27;87145;-61
2022/11/16 12:29:09;;;;;;;0.57;0.50;;;;;;;;;;5081303;27;88110;-58
2022/11/16 12:31:42;;;;;;;1.23;0.50;;;;;;;;;;5082079;27;87940;-58
2022/11/16 12:34:12;;;;;;;0.30;0.30;;;;;;;;;;5084627;27;87071;-58
2022/11/16 12:36:41;;;;;;;0.73;0.33;;;;;;;;;;5084664;27;87072;-57
2022/11/16 12:39:14;;;;;;;1.10;0.40;;;;;;;;;;5084349;27;88807;-58
2022/11/16 12:41:49;;;;;;;1.70;0.63;;;;;;;;;;5084820;27;90425;-58
2022/11/16 12:44:18;;;;;;;0.73;0.43;;;;;;;;;;5084832;27;86903;-57
2022/11/16 12:46:48;;;;;;;0.20;0.20;;;;;;;;;;5084767;27;86986;-58
2022/11/16 12:49:25;;;;;;;0.97;0.67;;;;;;;;;;5083278;27;90291;-58
2022/11/16 12:51:56;;;;;;;0.50;0.50;;;;;;;;;;5084373;27;88274;-58
2022/11/16 12:54:29;;;;;;;0.40;0.40;;;;;;;;;;5084041;27;87051;-58
2022/11/16 12:56:59;;;;;;;1.13;0.67;;;;;;;;;;5084818;27;87103;-60
2022/11/16 12:59:34;;;;;;;0.40;0.40;;;;;;;;;;5084281;27;89182;-58
2022/11/16 13:02:04;;;;;;;0.30;0.30;;;;;;;;;;5083967;27;87801;-58
2022/11/16 13:04:33;;;;;;;0.20;0.20;;;;;;;;;;5084161;27;88819;-59
2022/11/16 13:07:03;;;;;;;0.50;0.30;;;;;;;;;;5084808;27;86301;-60
2022/11/16 13:09:40;;;;;;;0.40;0.40;;;;;;;;;;5084182;27;89150;-59
2022/11/16 13:12:13;;;;;;;0.30;0.30;;;;;;;;;;5084123;27;88447;-60
2022/11/16 13:14:42;;;;;;;0.80;0.30;;;;;;;;;;5083545;27;87949;-59
2022/11/16 13:17:13;;;;;;;0.87;0.87;;;;;;;;;;5083751;27;87056;-60
2022/11/16 13:19:41;;;;;;;0.67;0.33;;;;;;;;;;5084089;27;89139;-60
2022/11/16 13:22:10;;;;;;;2.50;0.70;;;;;;;;;;5084556;27;90599;-58
2022/11/16 13:24:43;;;;;;;0.37;0.37;;;;;;;;;;5084765;27;87609;-58
2022/11/16 13:27:15;;;;;;;0.47;0.40;;;;;;;;;;5083087;27;87129;-58
2022/11/16 13:29:44;;;;;;;0.40;0.40;;;;;;;;;;5083784;27;88557;-60
2022/11/16 13:32:13;;;;;;;0.83;0.40;;;;;;;;;;5083827;27;87840;-58
2022/11/16 13:34:42;;;;;;;0.97;0.57;;;;;;;;;;5082634;27;87135;-59
2022/11/16 13:37:40;;;;;;;0.30;0.30;;;;;;;;;;5084025;27;86935;-58
2022/11/16 13:40:13;;;;;;;0.80;0.60;;;;;;;;;;5082641;27;90050;-58
2022/11/16 13:42:43;;;;;;;0.33;0.33;;;;;;;;;;5082336;27;89645;-58
2022/11/16 13:45:17;;;;;;;1.10;0.40;;;;;;;;;;5083612;27;86985;-58
2022/11/16 13:47:49;;;;;;;0.30;0.30;;;;;;;;;;5083509;27;87025;-58
2022/11/16 13:50:17;;;;;;;0.60;0.30;;;;;;;;;;5083085;27;89001;-58
2022/11/16 13:52:46;;;;;;;0.50;0.37;;;;;;;;;;5083006;27;88981;-58
2022/11/16 13:55:36;;;;;;;0.50;0.40;;;;;;;;;;5083542;27;87210;-58
2022/11/16 13:58:05;;;;;;;0.50;0.50;;;;;;;;;;5084091;27;86377;-58
2022/11/16 14:00:33;;;;;;;0.60;0.57;;;;;;;;;;5083247;27;89084;-58
2022/11/16 14:03:25;;;;;;;0.93;0.43;;;;;;;;;;5082603;27;88856;-58
2022/11/16 14:05:53;;;;;;;1.53;0.40;;;;;;;;;;5082511;27;88057;-58
2022/11/16 14:08:40;;;;;;;3.77;0.63;;;;;;;;;;5083298;27;87018;-58
2022/11/16 14:11:27;;;;;;;0.77;0.40;;;;;;;;;;5083038;27;88876;-58
2022/11/16 14:13:55;;;;;;;0.87;0.30;;;;;;;;;;5082466;27;88965;-58
2022/11/16 14:16:39;;;;;;;0.40;0.40;;;;;;;;;;5081912;27;87098;-59
2022/11/16 14:19:18;;;;;;;0.50;0.47;;;;;;;;;;5080763;27;87114;-58
2022/11/16 14:21:48;;;;;;;0.70;0.50;;;;;;;;;;5082829;27;89243;-58
2022/11/16 14:24:19;;;;;;;1.50;0.50;;;;;;;;;;5083113;27;87649;-58
2022/11/16 14:26:50;;;;;;;0.60;0.30;;;;;;;;;;5083389;27;87072;-58
2022/11/16 14:29:22;;;;;;;0.20;0.20;;;;;;;;;;5066287;27;87053;-58
2022/11/16 14:31:51;;;;;;;0.70;0.70;;;;;;;;;;5061755;27;90145;-58
2022/11/16 14:34:20;;;;;;;0.40;0.33;;;;;;;;;;5057857;27;89530;-59
2022/11/16 14:36:48;;;;;;;0.30;0.30;;;;;;;;;;5042019;27;87031;-58
2022/11/16 14:39:18;;;;;;;1.27;0.77;;;;;;;;;;5042175;28;87151;-59
2022/11/16 14:41:46;;;;;;;1.17;0.40;;;;;;;;;;5041879;28;89066;-58
2022/11/16 14:44:18;;;;;;;0.27;0.27;;;;;;;;;;5041716;28;88984;-58
2022/11/16 14:46:47;;;;;;;0.40;0.40;;;;;;;;;;5042150;27;87042;-58
2022/11/16 14:49:15;;;;;;;0.30;0.30;;;;;;;;;;5041627;27;86802;-58
2022/11/16 14:51:44;;;;;;;0.50;0.50;;;;;;;;;;5042138;28;91162;-59
2022/11/16 14:54:14;;;;;;;0.70;0.40;;;;;;;;;;5041742;28;87619;-59
2022/11/16 14:56:55;;;;;;;0.63;0.43;;;;;;;;;;5041617;28;88038;-58
2022/11/16 14:59:25;;;;;;;0.30;0.30;;;;;;;;;;5041423;27;87058;-58
2022/11/16 15:01:53;;;;;;;0.40;0.40;;;;;;;;;;5041101;27;89056;-58
2022/11/16 15:04:22;;;;;;;0.40;0.40;;;;;;;;;;5043221;27;88173;-58
2022/11/16 15:06:51;;;;;;;0.77;0.67;;;;;;;;;;5061176;27;87620;-58
2022/11/16 15:09:21;;;;;;;0.53;0.50;;;;;;;;;;5061955;27;87059;-58
2022/11/16 15:14:40;;;;;;;0.70;0.70;;;;;;;;;;5061921;27;88723;-58
2022/11/16 15:17:09;;;;;;;2.50;0.50;;;;;;;;;;5062124;27;87042;-58
2022/11/16 15:19:37;;;;;;;0.40;0.40;;;;;;;;;;5061194;27;87000;-58
2022/11/16 15:22:21;;;;;;;1.33;0.50;;;;;;;;;;5061224;27;90049;-58
2022/11/16 15:24:54;;;;;;;0.93;0.40;;;;;;;;;;5061706;27;89746;-58
2022/11/16 15:27:26;;;;;;;0.37;0.30;;;;;;;;;;5061958;27;87128;-58
2022/11/16 15:29:56;;;;;;;0.30;0.30;;;;;;;;;;5060974;27;87151;-58
2022/11/16 15:32:24;;;;;;;0.93;0.63;;;;;;;;;;5061108;27;88248;-58
2022/11/16 15:34:53;;;;;;;0.30;0.30;;;;;;;;;;5061069;27;87686;-58
2022/11/16 15:37:28;;;;;;;0.60;0.33;;;;;;;;;;5061925;27;87094;-58
2022/11/16 15:39:57;;;;;;;2.40;0.40;;;;;;;;;;5061935;27;86187;-58
2022/11/16 15:42:26;;;;;;;0.53;0.40;;;;;;;;;;5061522;27;88014;-58
2022/11/16 15:44:54;;;;;;;0.20;0.20;;;;;;;;;;5061053;27;87621;-59